City's sites:

title views votes rating creation
?never been here 388 12 (3.08)  2010-02-07
?pastel negro 612 14 (2.50)  2010-02-07
?dizzy 274 8 (3.38)  2010-02-07
?two pictures from my desktop 868 16 (3.69)  2010-02-09
?broken clock realizes he is the last object left in the ... 438 10 (3.20)  2010-02-09
?heroes of old 591 19 (3.74)  2010-02-09
?mr. price 443 8 (3.25)  2010-02-09
?Music I Like - Part 1 621 10 (3.60)  2010-02-10
?Music I Like - Part 2 390 13 (3.54)  2010-02-10
?Music I Like - Part 3 545 13 (3.69)  2010-02-10
?Music I Like - Part 4 427 5 (3.20)  2010-02-10
?intense 542 9 (3.78)  2010-02-10
?oh SNAP 785 9 (3.22)  2010-02-10
?Music I Like - Part 5 557 9 (3.56)  2010-02-10
?SignlanguageTMND 399 14 (3.86)  2010-02-10
?lol internet (refresh) 613 6 (3.17)  2010-02-12
?Dumbeldore kills snape! 3,344 67 (4.03)  2010-02-12
?prairiedogeric10 tribute site 686 23 (3.96)  2010-02-13
?Legolewdite fan club 1,299 38 (3.87)  2010-02-13
?Connery retires 414 13 (3.85)  2010-02-13
?TOURNEY4: lol internet 551 7 (2.43)  2010-02-15
?Speed Deemon 1,015 23 (3.74)  2010-02-23
?Tribute: ASSCOCKredux 1,664 64 (3.91)  2010-02-23
?some light jazz with Robert De Niro 865 12 (3.50)  2010-02-23
?In What Language 1,459 34 (3.74)  2010-02-24
?go go go go go go go go go go go go go go go go ... 2,075 23 (3.74)  2010-02-24
?FEARCONDOM'S FAMILY Q U I L T 613 11 (3.55)  2010-02-24
?TEST 783 19 (3.84)  2010-02-26
?....someday, oh dream maker DUNANANANAN... 5,116 148 (3.96)  2010-02-28
?DOUGH FUNNIE HOMO DICKS 646 12 (3.58)  2010-03-01
?Using a concrete bricK 591 17 (3.82)  2010-03-01
?I had sex with a Kayan Tribe woman, little help plea... 987 11 (3.36)  2010-03-03
?Adventure 4 1,098 18 (3.61)  2010-03-03
?the standoff 470 9 (3.67)  2010-03-03
?alley children 531 11 (3.91)  2010-03-05
?Steven Seagal isn't impressed 9,866 181 (4.17)  2010-03-05
?Daunting Steps 228 7 (3.00)  2010-03-05
?Cruel and Unusual 6,212 163 (4.24)  2010-03-09
?DancehallTMND 465 10 (3.80)  2010-03-12
?FUCK OUT MY FACE 493 5 (2.60)  2010-03-18
?16, no dither 796 18 (3.94)  2010-03-20
?say hi to my girlfriend 1,001 16 (3.81)  2010-03-21
?TT 631 16 (3.88)  2010-03-23
?jimmm thinks about his next five 693 20 (3.80)  2010-03-24
?THE TELEKINETIC MAN 295 18 (3.50)  2010-03-25
?. 129 7 (2.71)  2010-03-26
?1! 358 17 (3.35)  2010-03-26
?Fake crocodile takes it to the limit one more time 611 9 (3.67)  2010-03-27
?croctheme 404 4 (3.25)  2010-03-27
?crocodile site 451 6 (3.50)  2010-03-27
?CROC MAKES A 187 LOOK EASY 202 6 (3.33)  2010-03-27
?New Croc SIte 173 5 (3.40)  2010-03-27
?L 390 19 (3.63)  2010-03-27
?crocodile sIte 309 10 (3.50)  2010-03-30
?Pleasant® 364 8 (3.38)  2010-03-30
?A Lovely Ride 285 13 (3.85)  2010-03-30
?It's glorious today 294 14 (3.64)  2010-04-01
?Na - Zu 436 10 (3.70)  2010-04-01
?WHO'NOWOWOWOW 422 5 (2.60)  2010-04-03
?part of your world 219 5 (3.00)  2010-04-04
?fff 180 4 (3.50)  2010-04-04
?FIve-star webiste 1,017 16 (1.94)  2010-04-04
?Captain Haddock 1,754 28 (3.86)  2010-04-04
?, 270 9 (3.33)  2010-04-05
?indnian 437 7 (2.71)  2010-04-05
?Ricky Manning tribute sIte will be Underway soon ! 237 3 (3.67)  2010-04-06
?Epic Domain Grab 215 6 (2.17)  2010-04-06
?retirement site 168 6 (2.83)  2010-04-06
?Paul newman doesn't drive a VAN 205 4 (3.00)  2010-04-06
?Vince McMan 372 7 (2.86)  2010-04-06
?LOL 318 5 (3.00)  2010-04-06
?wut 322 4 (2.75)  2010-04-06
?www.coachcarter.ytmnd.com 347 8 (1.88)  2010-04-06
?untitled 329 7 (2.14)  2010-04-09
?ExpirimennalTYTMND 394 8 (3.38)  2010-04-09
?jioejejejoijiojiojioejiejoijeoj 429 14 (3.79)  2010-04-09
?Jake Steele catches a fly ball 371 4 (3.50)  2010-04-10
?Jake Steele forgets the milk 352 3 (3.00)  2010-04-10
?Jake Steele just found his watch 344 4 (3.25)  2010-04-10
?Jake Steele grows up a bit 461 7 (2.86)  2010-04-10
?KRA2008 389 5 (2.60)  2010-04-10
?Fuck the world 807 26 (3.88)  2010-04-16
?a sexual guy 518 10 (2.30)  2010-05-12
?well 339 4 (4.25)  2010-09-03
?gay site you can watch while thinking about stuff 1,616 15 (4.07)  2010-09-13
?site dedicated to great warchief 1,301 12 (3.58)  2010-09-16
?38388 875 8 (3.88)  2010-09-16
?watching the world buzz by 526 4 (3.50)  2010-09-16
?what now 1,479 17 (3.94)  2010-09-16